YZF weather

Yellowknife Airport
Yellowknife, Northwest Territories, Canada

Public forecast

Using degrees Celsius for public forecast. Weather courtesy of forecast.io.

Current aviation weather report (METAR) for Yellowknife Airport

Retrieved 2020/07/10 12:13 UTC (37 minutes ago):

CYZF 101213Z 16008KT 15SM -RA BKN048 BKN072 OVC140 14/11 A2978 RMK SC6AC1AC1 SLP093 DENSITY ALT 900FT

Aviation forecast (TAF) for Yellowknife Airport

Retrieved 2020/07/10 12:42 UTC (8 minutes ago):

TAF TAF CYZF 101138Z 1012/1112 14005KT P6SM FEW060 SCT080 BKN140 TEMPO 1012/1014 P6SM -SHRA BKN070 BECMG 1012/1014 13008KT FM101500 14008KT P6SM SCT040 BKN060 TEMPO 1015/1021 P6SM -SHRA BKN030 FM102100 17012KT P6SM SCT050 PROB30 1021/1103 VRB15G25KT 5SM TSRA BKN050CB FM110300 17007KT P6SM -SHRA BKN050 BECMG 1104/1106 16005KT RMK NXT FCST BY 101800Z